Chulitna, Alaska
Current Conditions -  °F | °C
As of 12:53 PM on Wednesday 22 Oct 2014 (Local Time) from PATK Reporting Station
Clear Clear  
Wind Chill: 42°   Ceiling: Unl
Heat Index: 45°   Visibility: 10mi
Dew Point: 20°   Wind: 6mph
Humidity: 37%   Direction: 50°NE
Pressure: 29.32"   Gusts: NA
Location:  62.88°N, 149.83°W
Report Text: PATK 222053Z AUTO 05005KT 10SM CLR 07/M07 A2932 RMK AO2 SLP933 T00721067 51008 TSNO
Loading
Personal Weather Stations






























Interactive Weather Map
Tropical Storm Tracking
New forecast layout! Learn more

10-Day Weather Forecast

Advertisements
Track Severe Weather on mobile